sensor_id;sensor_type;location;lat;lon;timestamp;P1;P2;P0
30713;PMS7003;17465;47.934;33.430;2024-03-08T00:01:02;46.50;43.75;28.75
30713;PMS7003;17465;47.934;33.430;2024-03-08T00:03:33;51.25;42.50;24.50
30713;PMS7003;17465;47.934;33.430;2024-03-08T00:06:03;39.75;36.00;17.25
30713;PMS7003;17465;47.934;33.430;2024-03-08T00:08:34;50.75;42.75;23.25
30713;PMS7003;17465;47.934;33.430;2024-03-08T00:11:04;37.25;33.75;20.75
30713;PMS7003;17465;47.934;33.430;2024-03-08T00:13:38;46.50;43.00;24.00
30713;PMS7003;17465;47.934;33.430;2024-03-08T00:16:08;38.50;33.00;16.75
30713;PMS7003;17465;47.934;33.430;2024-03-08T00:18:38;63.25;49.50;30.75
30713;PMS7003;17465;47.934;33.430;2024-03-08T00:21:08;64.50;53.00;35.75
30713;PMS7003;17465;47.934;33.430;2024-03-08T00:23:39;73.75;60.75;44.50
30713;PMS7003;17465;47.934;33.430;2024-03-08T00:26:11;75.00;62.50;44.00
30713;PMS7003;17465;47.934;33.430;2024-03-08T00:28:41;81.50;65.50;45.50
30713;PMS7003;17465;47.934;33.430;2024-03-08T00:31:11;69.25;57.75;41.50
30713;PMS7003;17465;47.934;33.430;2024-03-08T00:33:41;82.25;67.00;46.25
30713;PMS7003;17465;47.934;33.430;2024-03-08T00:36:12;80.75;66.00;48.00
30713;PMS7003;17465;47.934;33.430;2024-03-08T00:38:42;87.25;70.00;51.25
30713;PMS7003;17465;47.934;33.430;2024-03-08T00:41:12;90.25;73.00;56.75
30713;PMS7003;17465;47.934;33.430;2024-03-08T00:43:42;90.00;73.50;59.00
30713;PMS7003;17465;47.934;33.430;2024-03-08T00:46:12;51.00;46.75;28.00
30713;PMS7003;17465;47.934;33.430;2024-03-08T00:48:43;72.75;60.75;43.00
30713;PMS7003;17465;47.934;33.430;2024-03-08T00:51:13;84.00;68.75;52.50
30713;PMS7003;17465;47.934;33.430;2024-03-08T00:53:43;73.50;59.25;42.75
30713;PMS7003;17465;47.934;33.430;2024-03-08T00:56:14;68.00;56.75;37.50
30713;PMS7003;17465;47.934;33.430;2024-03-08T00:58:44;69.75;57.25;37.25
30713;PMS7003;17465;47.934;33.430;2024-03-08T01:01:14;63.00;51.50;34.50
30713;PMS7003;17465;47.934;33.430;2024-03-08T01:03:44;74.00;62.25;46.25
30713;PMS7003;17465;47.934;33.430;2024-03-08T01:06:15;66.00;55.75;38.25
30713;PMS7003;17465;47.934;33.430;2024-03-08T01:08:46;61.75;49.00;28.00
30713;PMS7003;17465;47.934;33.430;2024-03-08T01:11:16;55.00;47.25;30.00
30713;PMS7003;17465;47.934;33.430;2024-03-08T01:13:46;54.75;46.00;28.50
30713;PMS7003;17465;47.934;33.430;2024-03-08T01:16:18;49.50;43.25;28.25
30713;PMS7003;17465;47.934;33.430;2024-03-08T01:18:49;40.00;32.25;20.25
30713;PMS7003;17465;47.934;33.430;2024-03-08T01:21:20;40.00;37.00;21.25
30713;PMS7003;17465;47.934;33.430;2024-03-08T01:23:50;47.75;39.75;19.75
30713;PMS7003;17465;47.934;33.430;2024-03-08T01:26:20;44.25;35.75;17.25
30713;PMS7003;17465;47.934;33.430;2024-03-08T01:28:51;42.25;35.25;17.75
30713;PMS7003;17465;47.934;33.430;2024-03-08T01:31:21;36.00;31.25;18.25
30713;PMS7003;17465;47.934;33.430;2024-03-08T01:33:51;34.75;31.25;14.00
30713;PMS7003;17465;47.934;33.430;2024-03-08T01:36:22;40.75;37.50;17.75
30713;PMS7003;17465;47.934;33.430;2024-03-08T01:38:55;37.00;35.75;15.75
30713;PMS7003;17465;47.934;33.430;2024-03-08T01:41:25;35.25;35.25;16.75
30713;PMS7003;17465;47.934;33.430;2024-03-08T01:43:55;42.25;36.50;17.50
30713;PMS7003;17465;47.934;33.430;2024-03-08T01:46:25;44.75;39.00;13.50
30713;PMS7003;17465;47.934;33.430;2024-03-08T01:48:55;37.25;34.25;17.50
30713;PMS7003;17465;47.934;33.430;2024-03-08T01:51:26;40.50;34.25;17.25
30713;PMS7003;17465;47.934;33.430;2024-03-08T01:53:58;44.50;41.50;18.00
30713;PMS7003;17465;47.934;33.430;2024-03-08T01:56:31;34.75;30.50;13.00
30713;PMS7003;17465;47.934;33.430;2024-03-08T01:59:02;34.50;31.25;13.00
30713;PMS7003;17465;47.934;33.430;2024-03-08T02:01:33;39.25;31.00;12.00
30713;PMS7003;17465;47.934;33.430;2024-03-08T02:04:04;34.00;31.00;12.75
30713;PMS7003;17465;47.934;33.430;2024-03-08T02:06:34;37.25;33.75;13.00
30713;PMS7003;17465;47.934;33.430;2024-03-08T02:09:04;34.75;33.00;12.00
30713;PMS7003;17465;47.934;33.430;2024-03-08T02:11:34;36.75;35.25;15.00
30713;PMS7003;17465;47.934;33.430;2024-03-08T02:14:05;45.50;40.00;17.25
30713;PMS7003;17465;47.934;33.430;2024-03-08T02:16:36;40.00;29.00;7.50
30713;PMS7003;17465;47.934;33.430;2024-03-08T02:19:06;36.00;34.00;13.25
30713;PMS7003;17465;47.934;33.430;2024-03-08T02:21:36;37.50;37.25;15.50
30713;PMS7003;17465;47.934;33.430;2024-03-08T02:24:06;35.00;30.00;10.75
30713;PMS7003;17465;47.934;33.430;2024-03-08T02:26:37;39.50;31.00;15.50
30713;PMS7003;17465;47.934;33.430;2024-03-08T02:29:07;54.25;42.75;14.50
30713;PMS7003;17465;47.934;33.430;2024-03-08T02:31:38;45.00;41.00;20.75
30713;PMS7003;17465;47.934;33.430;2024-03-08T02:34:08;51.00;44.75;25.50
30713;PMS7003;17465;47.934;33.430;2024-03-08T02:36:38;56.00;50.00;29.25
30713;PMS7003;17465;47.934;33.430;2024-03-08T02:39:08;49.25;45.00;21.75
30713;PMS7003;17465;47.934;33.430;2024-03-08T02:41:38;49.75;45.00;24.00
30713;PMS7003;17465;47.934;33.430;2024-03-08T02:44:09;55.00;48.00;26.75
30713;PMS7003;17465;47.934;33.430;2024-03-08T02:46:39;50.00;42.50;20.75
30713;PMS7003;17465;47.934;33.430;2024-03-08T02:49:09;59.00;48.75;28.50
30713;PMS7003;17465;47.934;33.430;2024-03-08T02:51:40;55.50;48.00;29.75
30713;PMS7003;17465;47.934;33.430;2024-03-08T02:54:10;57.00;46.75;25.00
30713;PMS7003;17465;47.934;33.430;2024-03-08T02:56:40;55.00;45.00;27.25
30713;PMS7003;17465;47.934;33.430;2024-03-08T02:59:10;44.75;38.00;18.25
30713;PMS7003;17465;47.934;33.430;2024-03-08T03:01:41;46.50;38.50;19.00
30713;PMS7003;17465;47.934;33.430;2024-03-08T03:04:11;50.75;44.50;21.00
30713;PMS7003;17465;47.934;33.430;2024-03-08T03:06:41;44.50;39.25;20.00
30713;PMS7003;17465;47.934;33.430;2024-03-08T03:09:11;42.75;41.50;15.75
30713;PMS7003;17465;47.934;33.430;2024-03-08T03:11:43;48.00;41.25;17.00
30713;PMS7003;17465;47.934;33.430;2024-03-08T03:14:15;51.00;43.50;19.75
30713;PMS7003;17465;47.934;33.430;2024-03-08T03:16:45;42.00;37.25;17.50
30713;PMS7003;17465;47.934;33.430;2024-03-08T03:19:15;67.50;55.00;34.00
30713;PMS7003;17465;47.934;33.430;2024-03-08T03:21:46;58.50;45.75;24.25
30713;PMS7003;17465;47.934;33.430;2024-03-08T03:24:16;56.25;49.25;32.00
30713;PMS7003;17465;47.934;33.430;2024-03-08T03:26:50;66.00;54.00;34.00
30713;PMS7003;17465;47.934;33.430;2024-03-08T03:29:19;52.25;45.50;25.00
30713;PMS7003;17465;47.934;33.430;2024-03-08T03:31:49;59.50;48.75;30.50
30713;PMS7003;17465;47.934;33.430;2024-03-08T03:34:19;45.75;42.00;21.50
30713;PMS7003;17465;47.934;33.430;2024-03-08T03:36:55;55.00;46.00;18.50
30713;PMS7003;17465;47.934;33.430;2024-03-08T03:39:21;39.25;33.25;12.00
30713;PMS7003;17465;47.934;33.430;2024-03-08T03:41:52;41.75;35.50;17.50
30713;PMS7003;17465;47.934;33.430;2024-03-08T03:44:22;52.00;44.50;23.75
30713;PMS7003;17465;47.934;33.430;2024-03-08T03:46:52;40.50;34.00;13.25
30713;PMS7003;17465;47.934;33.430;2024-03-08T03:49:24;46.00;39.00;18.00
30713;PMS7003;17465;47.934;33.430;2024-03-08T03:51:54;48.50;43.50;20.50
30713;PMS7003;17465;47.934;33.430;2024-03-08T03:54:24;33.00;33.00;15.00
30713;PMS7003;17465;47.934;33.430;2024-03-08T03:56:55;41.75;35.75;14.50
30713;PMS7003;17465;47.934;33.430;2024-03-08T03:59:26;47.75;42.00;18.75
30713;PMS7003;17465;47.934;33.430;2024-03-08T04:01:56;47.25;42.50;14.25
30713;PMS7003;17465;47.934;33.430;2024-03-08T04:04:30;38.00;36.25;16.25
30713;PMS7003;17465;47.934;33.430;2024-03-08T04:07:02;44.50;38.50;22.25
30713;PMS7003;17465;47.934;33.430;2024-03-08T04:09:42;39.50;36.50;17.00
30713;PMS7003;17465;47.934;33.430;2024-03-08T04:12:17;52.00;43.75;21.25
30713;PMS7003;17465;47.934;33.430;2024-03-08T04:14:48;38.50;36.50;20.00
30713;PMS7003;17465;47.934;33.430;2024-03-08T04:17:18;46.75;41.50;17.75
30713;PMS7003;17465;47.934;33.430;2024-03-08T04:19:49;34.75;31.50;12.50
30713;PMS7003;17465;47.934;33.430;2024-03-08T04:22:19;36.75;34.75;14.25
30713;PMS7003;17465;47.934;33.430;2024-03-08T04:24:50;42.25;34.75;14.00
30713;PMS7003;17465;47.934;33.430;2024-03-08T04:27:20;39.00;35.50;13.00
30713;PMS7003;17465;47.934;33.430;2024-03-08T04:29:53;38.25;34.25;15.00
30713;PMS7003;17465;47.934;33.430;2024-03-08T04:32:23;51.50;43.25;21.00
30713;PMS7003;17465;47.934;33.430;2024-03-08T04:34:53;45.00;37.75;18.50
30713;PMS7003;17465;47.934;33.430;2024-03-08T04:37:24;57.00;47.75;22.50
30713;PMS7003;17465;47.934;33.430;2024-03-08T04:39:54;61.75;47.00;25.75
30713;PMS7003;17465;47.934;33.430;2024-03-08T04:42:24;73.00;57.00;36.75
30713;PMS7003;17465;47.934;33.430;2024-03-08T04:44:56;57.50;49.75;32.25
30713;PMS7003;17465;47.934;33.430;2024-03-08T04:47:30;70.50;55.25;35.75
30713;PMS7003;17465;47.934;33.430;2024-03-08T04:50:03;82.50;67.00;47.00
30713;PMS7003;17465;47.934;33.430;2024-03-08T04:52:35;71.00;58.00;40.25
30713;PMS7003;17465;47.934;33.430;2024-03-08T04:55:05;81.25;66.25;45.25
30713;PMS7003;17465;47.934;33.430;2024-03-08T04:57:38;71.25;59.75;39.75
30713;PMS7003;17465;47.934;33.430;2024-03-08T05:00:09;104.00;90.25;79.25
30713;PMS7003;17465;47.934;33.430;2024-03-08T05:02:51;124.75;119.75;106.25
30713;PMS7003;17465;47.934;33.430;2024-03-08T05:05:17;121.50;117.25;105.50
30713;PMS7003;17465;47.934;33.430;2024-03-08T05:07:47;148.50;147.50;133.75
30713;PMS7003;17465;47.934;33.430;2024-03-08T05:10:17;176.20;173.80;160.00
30713;PMS7003;17465;47.934;33.430;2024-03-08T05:12:50;160.25;156.00;145.50
30713;PMS7003;17465;47.934;33.430;2024-03-08T05:15:23;163.25;158.50;148.50
30713;PMS7003;17465;47.934;33.430;2024-03-08T05:17:55;119.00;108.25;101.00
30713;PMS7003;17465;47.934;33.430;2024-03-08T05:20:28;108.50;97.75;98.75
30713;PMS7003;17465;47.934;33.430;2024-03-08T05:22:59;85.25;70.25;59.75
30713;PMS7003;17465;47.934;33.430;2024-03-08T05:25:29;67.50;57.25;41.00
30713;PMS7003;17465;47.934;33.430;2024-03-08T05:28:02;51.50;44.75;23.50
30713;PMS7003;17465;47.934;33.430;2024-03-08T05:30:33;56.50;45.75;28.50
30713;PMS7003;17465;47.934;33.430;2024-03-08T05:33:03;60.50;50.75;33.25
30713;PMS7003;17465;47.934;33.430;2024-03-08T05:35:34;47.50;42.25;19.50
30713;PMS7003;17465;47.934;33.430;2024-03-08T05:38:04;43.50;36.25;19.00
30713;PMS7003;17465;47.934;33.430;2024-03-08T05:40:35;56.25;48.25;29.00
30713;PMS7003;17465;47.934;33.430;2024-03-08T05:43:05;55.50;47.75;28.50
30713;PMS7003;17465;47.934;33.430;2024-03-08T05:45:35;57.00;47.50;30.50
30713;PMS7003;17465;47.934;33.430;2024-03-08T05:48:06;73.25;57.50;36.25
30713;PMS7003;17465;47.934;33.430;2024-03-08T05:50:37;87.00;73.75;56.75
30713;PMS7003;17465;47.934;33.430;2024-03-08T05:53:07;71.25;59.00;39.00
30713;PMS7003;17465;47.934;33.430;2024-03-08T05:55:38;86.50;69.50;54.50
30713;PMS7003;17465;47.934;33.430;2024-03-08T05:58:08;72.00;57.75;39.00
30713;PMS7003;17465;47.934;33.430;2024-03-08T06:00:39;85.00;69.50;52.75
30713;PMS7003;17465;47.934;33.430;2024-03-08T06:03:09;67.50;57.50;38.00
30713;PMS7003;17465;47.934;33.430;2024-03-08T06:05:40;66.25;55.00;35.75
30713;PMS7003;17465;47.934;33.430;2024-03-08T06:08:10;71.00;57.00;37.50
30713;PMS7003;17465;47.934;33.430;2024-03-08T06:10:40;64.50;52.50;30.50
30713;PMS7003;17465;47.934;33.430;2024-03-08T06:13:13;59.25;49.00;30.00
30713;PMS7003;17465;47.934;33.430;2024-03-08T06:15:42;48.75;44.75;27.25
30713;PMS7003;17465;47.934;33.430;2024-03-08T06:18:12;51.50;42.25;24.25
30713;PMS7003;17465;47.934;33.430;2024-03-08T06:20:43;48.50;42.75;24.00
30713;PMS7003;17465;47.934;33.430;2024-03-08T06:23:15;50.75;40.75;21.50
30713;PMS7003;17465;47.934;33.430;2024-03-08T06:25:46;61.50;49.75;30.00
30713;PMS7003;17465;47.934;33.430;2024-03-08T06:28:16;51.75;43.75;27.00
30713;PMS7003;17465;47.934;33.430;2024-03-08T06:30:46;67.75;52.75;30.50
30713;PMS7003;17465;47.934;33.430;2024-03-08T06:33:20;54.00;45.00;27.00
30713;PMS7003;17465;47.934;33.430;2024-03-08T06:35:53;53.50;45.50;26.50
30713;PMS7003;17465;47.934;33.430;2024-03-08T06:38:27;60.75;52.25;31.00
30713;PMS7003;17465;47.934;33.430;2024-03-08T06:40:58;57.00;48.50;29.75
30713;PMS7003;17465;47.934;33.430;2024-03-08T06:43:32;63.25;51.50;33.50
30713;PMS7003;17465;47.934;33.430;2024-03-08T06:46:03;67.75;56.00;38.00
30713;PMS7003;17465;47.934;33.430;2024-03-08T06:48:33;55.00;47.50;30.50
30713;PMS7003;17465;47.934;33.430;2024-03-08T06:51:09;60.00;49.50;32.00
30713;PMS7003;17465;47.934;33.430;2024-03-08T06:53:43;60.50;49.50;32.00
30713;PMS7003;17465;47.934;33.430;2024-03-08T06:56:14;57.75;47.25;29.25
30713;PMS7003;17465;47.934;33.430;2024-03-08T06:58:45;56.00;46.50;27.00
30713;PMS7003;17465;47.934;33.430;2024-03-08T07:01:16;49.75;44.25;26.50
30713;PMS7003;17465;47.934;33.430;2024-03-08T07:03:52;50.75;43.25;20.00
30713;PMS7003;17465;47.934;33.430;2024-03-08T07:06:22;51.00;43.25;29.00
30713;PMS7003;17465;47.934;33.430;2024-03-08T07:15:41;51.50;43.25;26.00
30713;PMS7003;17465;47.934;33.430;2024-03-08T07:18:12;47.50;38.75;23.75
30713;PMS7003;17465;47.934;33.430;2024-03-08T07:20:45;57.75;44.25;30.25
30713;PMS7003;17465;47.934;33.430;2024-03-08T07:23:15;52.00;44.50;25.50
30713;PMS7003;17465;47.934;33.430;2024-03-08T07:25:48;58.75;48.00;29.50
30713;PMS7003;17465;47.934;33.430;2024-03-08T07:28:20;45.25;41.25;24.00
30713;PMS7003;17465;47.934;33.430;2024-03-08T07:30:50;50.25;42.50;26.00
30713;PMS7003;17465;47.934;33.430;2024-03-08T07:33:24;56.25;48.00;27.75
30713;PMS7003;17465;47.934;33.430;2024-03-08T07:35:55;51.75;42.50;28.00
30713;PMS7003;17465;47.934;33.430;2024-03-08T07:38:28;58.75;47.00;28.00
30713;PMS7003;17465;47.934;33.430;2024-03-08T07:41:00;57.00;46.00;27.00
30713;PMS7003;17465;47.934;33.430;2024-03-08T07:43:32;47.00;42.25;28.00
30713;PMS7003;17465;47.934;33.430;2024-03-08T07:46:04;55.25;45.50;28.25
30713;PMS7003;17465;47.934;33.430;2024-03-08T07:48:38;56.50;46.50;29.50
30713;PMS7003;17465;47.934;33.430;2024-03-08T07:51:14;45.50;39.50;23.75
30713;PMS7003;17465;47.934;33.430;2024-03-08T07:53:41;47.75;41.00;23.50
30713;PMS7003;17465;47.934;33.430;2024-03-08T07:56:21;47.50;42.00;24.50
30713;PMS7003;17465;47.934;33.430;2024-03-08T07:59:00;55.75;44.00;27.25
30713;PMS7003;17465;47.934;33.430;2024-03-08T08:01:26;52.75;46.50;28.75
30713;PMS7003;17465;47.934;33.430;2024-03-08T08:07:13;52.25;43.50;27.50
30713;PMS7003;17465;47.934;33.430;2024-03-08T08:09:54;58.75;48.50;33.75
30713;PMS7003;17465;47.934;33.430;2024-03-08T08:12:25;63.50;53.00;36.50
30713;PMS7003;17465;47.934;33.430;2024-03-08T08:14:56;78.00;64.25;48.50
30713;PMS7003;17465;47.934;33.430;2024-03-08T08:17:27;68.75;54.25;37.75
30713;PMS7003;17465;47.934;33.430;2024-03-08T08:19:58;53.75;44.50;28.25
30713;PMS7003;17465;47.934;33.430;2024-03-08T08:22:28;51.25;41.50;24.00
30713;PMS7003;17465;47.934;33.430;2024-03-08T08:24:58;51.25;41.75;25.00
30713;PMS7003;17465;47.934;33.430;2024-03-08T08:27:29;45.75;41.25;24.75
30713;PMS7003;17465;47.934;33.430;2024-03-08T08:29:59;44.75;41.00;25.25
30713;PMS7003;17465;47.934;33.430;2024-03-08T08:32:30;42.75;37.75;17.75
30713;PMS7003;17465;47.934;33.430;2024-03-08T08:35:02;46.25;40.50;21.00
30713;PMS7003;17465;47.934;33.430;2024-03-08T08:37:33;34.50;31.00;20.50
30713;PMS7003;17465;47.934;33.430;2024-03-08T08:40:04;38.25;34.75;20.00
30713;PMS7003;17465;47.934;33.430;2024-03-08T08:42:35;44.50;40.00;24.50
30713;PMS7003;17465;47.934;33.430;2024-03-08T08:45:06;40.50;36.00;21.25
30713;PMS7003;17465;47.934;33.430;2024-03-08T08:47:39;33.25;31.75;16.75
30713;PMS7003;17465;47.934;33.430;2024-03-08T08:50:09;41.75;38.00;23.50
30713;PMS7003;17465;47.934;33.430;2024-03-08T08:52:42;39.50;36.50;21.25
30713;PMS7003;17465;47.934;33.430;2024-03-08T08:55:13;43.75;39.50;24.75
30713;PMS7003;17465;47.934;33.430;2024-03-08T08:57:45;50.75;42.50;25.25
30713;PMS7003;17465;47.934;33.430;2024-03-08T09:00:18;56.75;41.50;25.25
30713;PMS7003;17465;47.934;33.430;2024-03-08T09:02:48;51.75;42.25;25.75
30713;PMS7003;17465;47.934;33.430;2024-03-08T09:05:18;50.00;44.25;27.25
30713;PMS7003;17465;47.934;33.430;2024-03-08T09:07:49;40.50;36.75;21.25
30713;PMS7003;17465;47.934;33.430;2024-03-08T09:10:19;47.25;41.50;25.75
30713;PMS7003;17465;47.934;33.430;2024-03-08T09:12:49;49.00;41.75;27.00
30713;PMS7003;17465;47.934;33.430;2024-03-08T09:15:20;52.00;41.50;23.25
30713;PMS7003;17465;47.934;33.430;2024-03-08T09:17:50;49.00;42.00;25.25
30713;PMS7003;17465;47.934;33.430;2024-03-08T09:20:21;50.00;39.50;20.00
30713;PMS7003;17465;47.934;33.430;2024-03-08T09:22:51;43.50;40.25;24.25
30713;PMS7003;17465;47.934;33.430;2024-03-08T09:25:21;36.50;29.00;15.25
30713;PMS7003;17465;47.934;33.430;2024-03-08T09:27:51;51.25;41.75;25.75
30713;PMS7003;17465;47.934;33.430;2024-03-08T09:30:22;44.50;38.00;22.50
30713;PMS7003;17465;47.934;33.430;2024-03-08T09:32:52;44.75;40.50;26.50
30713;PMS7003;17465;47.934;33.430;2024-03-08T09:35:24;36.00;34.00;21.75
30713;PMS7003;17465;47.934;33.430;2024-03-08T09:37:54;42.50;39.25;23.25
30713;PMS7003;17465;47.934;33.430;2024-03-08T09:40:25;44.75;38.75;23.50
30713;PMS7003;17465;47.934;33.430;2024-03-08T09:42:55;49.25;42.25;25.25
30713;PMS7003;17465;47.934;33.430;2024-03-08T09:45:25;44.00;38.75;19.25
30713;PMS7003;17465;47.934;33.430;2024-03-08T09:47:56;45.00;38.50;22.25
30713;PMS7003;17465;47.934;33.430;2024-03-08T09:50:27;50.75;41.75;25.25
30713;PMS7003;17465;47.934;33.430;2024-03-08T09:52:58;47.75;40.00;24.00
30713;PMS7003;17465;47.934;33.430;2024-03-08T09:55:28;52.25;44.75;27.00
30713;PMS7003;17465;47.934;33.430;2024-03-08T09:58:00;48.75;42.00;25.25
30713;PMS7003;17465;47.934;33.430;2024-03-08T10:00:33;49.00;41.00;22.75
30713;PMS7003;17465;47.934;33.430;2024-03-08T10:03:04;43.25;37.75;20.75
30713;PMS7003;17465;47.934;33.430;2024-03-08T10:05:34;39.00;37.50;21.50
30713;PMS7003;17465;47.934;33.430;2024-03-08T10:08:04;42.75;36.50;23.25
30713;PMS7003;17465;47.934;33.430;2024-03-08T10:10:35;44.50;38.25;23.50
30713;PMS7003;17465;47.934;33.430;2024-03-08T10:13:07;49.75;39.75;24.50
30713;PMS7003;17465;47.934;33.430;2024-03-08T10:15:39;44.75;38.00;22.50
30713;PMS7003;17465;47.934;33.430;2024-03-08T10:18:11;43.75;39.75;25.75
30713;PMS7003;17465;47.934;33.430;2024-03-08T10:20:41;45.00;39.00;24.00
30713;PMS7003;17465;47.934;33.430;2024-03-08T10:23:13;43.75;38.00;22.00
30713;PMS7003;17465;47.934;33.430;2024-03-08T10:25:43;39.25;36.50;22.25
30713;PMS7003;17465;47.934;33.430;2024-03-08T10:28:13;36.75;32.25;22.25
30713;PMS7003;17465;47.934;33.430;2024-03-08T10:30:46;41.25;36.50;20.50
30713;PMS7003;17465;47.934;33.430;2024-03-08T10:33:17;41.00;38.00;21.50
30713;PMS7003;17465;47.934;33.430;2024-03-08T10:35:48;25.00;20.25;15.25
30713;PMS7003;17465;47.934;33.430;2024-03-08T10:38:21;42.25;37.75;24.50
30713;PMS7003;17465;47.934;33.430;2024-03-08T10:40:53;135.40;133.20;123.80
30713;PMS7003;17465;47.934;33.430;2024-03-08T10:43:24;305.17;304.00;300.83
30713;PMS7003;17465;47.934;33.430;2024-03-08T10:46:01;233.20;231.60;222.40
30713;PMS7003;17465;47.934;33.430;2024-03-08T10:48:32;229.33;227.50;223.00
30713;PMS7003;17465;47.934;33.430;2024-03-08T10:51:08;216.67;214.50;204.83
30713;PMS7003;17465;47.934;33.430;2024-03-08T10:53:41;292.33;292.00;284.00
30713;PMS7003;17465;47.934;33.430;2024-03-08T10:56:11;223.80;221.80;216.80
30713;PMS7003;17465;47.934;33.430;2024-03-08T10:58:42;86.80;77.40;66.80
30713;PMS7003;17465;47.934;33.430;2024-03-08T11:01:13;27.50;25.50;9.50
30713;PMS7003;17465;47.934;33.430;2024-03-08T11:03:43;31.40;25.60;8.60
30713;PMS7003;17465;47.934;33.430;2024-03-08T11:06:18;24.50;20.25;6.25
30713;PMS7003;17465;47.934;33.430;2024-03-08T11:08:58;26.60;24.80;10.00
30713;PMS7003;17465;47.934;33.430;2024-03-08T11:11:43;36.50;30.00;15.00
30713;PMS7003;17465;47.934;33.430;2024-03-08T11:14:07;117.50;111.00;100.25
30713;PMS7003;17465;47.934;33.430;2024-03-08T11:16:58;28.25;23.75;7.50
30713;PMS7003;17465;47.934;33.430;2024-03-08T11:19:30;39.75;34.75;19.00
30713;PMS7003;17465;47.934;33.430;2024-03-08T11:22:03;29.00;28.25;19.00
30713;PMS7003;17465;47.934;33.430;2024-03-08T11:24:36;31.00;30.50;19.75
30713;PMS7003;17465;47.934;33.430;2024-03-08T11:27:08;33.75;32.75;20.25
30713;PMS7003;17465;47.934;33.430;2024-03-08T11:29:39;38.25;34.00;21.25
30713;PMS7003;17465;47.934;33.430;2024-03-08T11:32:15;32.50;30.25;15.25
30713;PMS7003;17465;47.934;33.430;2024-03-08T11:34:47;47.00;40.25;25.00
30713;PMS7003;17465;47.934;33.430;2024-03-08T11:37:19;51.25;39.75;24.50
30713;PMS7003;17465;47.934;33.430;2024-03-08T11:39:54;46.50;40.00;24.00
30713;PMS7003;17465;47.934;33.430;2024-03-08T11:42:28;42.25;36.25;22.25
30713;PMS7003;17465;47.934;33.430;2024-03-08T11:44:58;44.75;38.00;22.50
30713;PMS7003;17465;47.934;33.430;2024-03-08T11:47:29;48.25;39.75;25.25
30713;PMS7003;17465;47.934;33.430;2024-03-08T11:49:59;42.25;33.50;23.00
30713;PMS7003;17465;47.934;33.430;2024-03-08T11:52:30;31.50;27.00;18.00
30713;PMS7003;17465;47.934;33.430;2024-03-08T11:55:01;30.75;29.50;18.25
30713;PMS7003;17465;47.934;33.430;2024-03-08T11:57:40;32.50;30.25;19.25
30713;PMS7003;17465;47.934;33.430;2024-03-08T12:00:18;36.00;30.00;18.25
30713;PMS7003;17465;47.934;33.430;2024-03-08T12:05:42;34.50;32.00;17.25
30713;PMS7003;17465;47.934;33.430;2024-03-08T12:08:35;36.25;33.00;18.50
30713;PMS7003;17465;47.934;33.430;2024-03-08T12:11:17;32.75;31.50;20.50
30713;PMS7003;17465;47.934;33.430;2024-03-08T12:14:06;35.50;31.25;16.75
30713;PMS7003;17465;47.934;33.430;2024-03-08T12:16:38;34.75;29.50;17.50
30713;PMS7003;17465;47.934;33.430;2024-03-08T12:19:17;31.00;28.25;16.25
30713;PMS7003;17465;47.934;33.430;2024-03-08T12:21:58;37.00;33.00;19.25
30713;PMS7003;17465;47.934;33.430;2024-03-08T12:27:25;35.00;34.25;20.75
30713;PMS7003;17465;47.934;33.430;2024-03-08T12:29:56;30.50;27.75;16.00
30713;PMS7003;17465;47.934;33.430;2024-03-08T12:32:26;28.75;27.75;17.25
30713;PMS7003;17465;47.934;33.430;2024-03-08T12:35:03;32.25;30.50;19.25
30713;PMS7003;17465;47.934;33.430;2024-03-08T12:38:34;29.75;27.75;20.75
30713;PMS7003;17465;47.934;33.430;2024-03-08T12:41:08;31.25;28.00;16.00
30713;PMS7003;17465;47.934;33.430;2024-03-08T12:43:44;28.75;27.50;17.00
30713;PMS7003;17465;47.934;33.430;2024-03-08T12:46:18;29.00;27.00;17.75
30713;PMS7003;17465;47.934;33.430;2024-03-08T12:48:49;30.00;28.25;15.75
30713;PMS7003;17465;47.934;33.430;2024-03-08T12:51:25;31.50;30.00;17.75
30713;PMS7003;17465;47.934;33.430;2024-03-08T12:53:55;32.00;28.50;16.00
30713;PMS7003;17465;47.934;33.430;2024-03-08T12:56:31;30.50;25.75;15.00
30713;PMS7003;17465;47.934;33.430;2024-03-08T12:59:01;36.25;33.25;18.25
30713;PMS7003;17465;47.934;33.430;2024-03-08T13:01:32;29.75;26.25;14.00
30713;PMS7003;17465;47.934;33.430;2024-03-08T13:04:03;38.25;30.25;16.25
30713;PMS7003;17465;47.934;33.430;2024-03-08T13:06:42;23.00;22.00;15.25
30713;PMS7003;17465;47.934;33.430;2024-03-08T13:09:11;28.75;26.25;15.25
30713;PMS7003;17465;47.934;33.430;2024-03-08T13:11:42;28.50;25.25;14.50
30713;PMS7003;17465;47.934;33.430;2024-03-08T13:14:15;24.00;23.00;12.00
30713;PMS7003;17465;47.934;33.430;2024-03-08T13:16:49;29.75;27.75;15.25
30713;PMS7003;17465;47.934;33.430;2024-03-08T13:19:24;28.00;25.00;14.50
30713;PMS7003;17465;47.934;33.430;2024-03-08T13:21:54;24.00;23.00;12.50
30713;PMS7003;17465;47.934;33.430;2024-03-08T13:24:25;28.75;25.00;14.25
30713;PMS7003;17465;47.934;33.430;2024-03-08T13:26:55;26.50;23.50;14.75
30713;PMS7003;17465;47.934;33.430;2024-03-08T13:29:26;33.00;27.25;14.75
30713;PMS7003;17465;47.934;33.430;2024-03-08T13:31:56;24.00;22.50;15.00
30713;PMS7003;17465;47.934;33.430;2024-03-08T13:34:26;12.25;10.50;2.00
30713;PMS7003;17465;47.934;33.430;2024-03-08T13:36:56;25.00;24.25;14.25
30713;PMS7003;17465;47.934;33.430;2024-03-08T13:39:27;22.75;21.75;11.25
30713;PMS7003;17465;47.934;33.430;2024-03-08T13:41:57;27.75;25.25;13.00
30713;PMS7003;17465;47.934;33.430;2024-03-08T13:44:27;27.75;26.75;16.50
30713;PMS7003;17465;47.934;33.430;2024-03-08T13:46:58;24.75;24.50;14.25
30713;PMS7003;17465;47.934;33.430;2024-03-08T13:49:28;26.50;26.50;16.00
30713;PMS7003;17465;47.934;33.430;2024-03-08T13:52:06;24.75;23.50;11.00
30713;PMS7003;17465;47.934;33.430;2024-03-08T13:54:36;28.25;25.50;13.00
30713;PMS7003;17465;47.934;33.430;2024-03-08T13:57:07;24.25;23.00;12.75
30713;PMS7003;17465;47.934;33.430;2024-03-08T13:59:42;21.00;19.00;7.75
30713;PMS7003;17465;47.934;33.430;2024-03-08T14:02:12;53.25;45.00;32.75
30713;PMS7003;17465;47.934;33.430;2024-03-08T14:04:46;49.00;44.00;32.50
30713;PMS7003;17465;47.934;33.430;2024-03-08T14:07:16;24.75;24.00;12.25
30713;PMS7003;17465;47.934;33.430;2024-03-08T14:09:47;25.00;22.00;12.25
30713;PMS7003;17465;47.934;33.430;2024-03-08T14:12:18;24.00;22.25;14.75